createdAt,value
2019-02-08T00:01:39.346Z,100.00
2019-02-08T00:04:08.185Z,100.00
2019-02-08T00:06:37.080Z,100.00
2019-02-08T00:09:09.190Z,100.00
2019-02-08T00:11:38.059Z,100.00
2019-02-08T00:14:07.236Z,100.00
2019-02-08T00:16:36.085Z,100.00
2019-02-08T00:19:44.489Z,100.00
2019-02-08T00:22:13.397Z,100.00
2019-02-08T00:24:42.037Z,100.00
2019-02-08T00:27:10.760Z,100.00
2019-02-08T00:29:39.471Z,100.00
2019-02-08T00:32:08.098Z,100.00
2019-02-08T00:34:36.802Z,100.00
2019-02-08T00:37:05.434Z,100.00
2019-02-08T00:39:34.303Z,100.00
2019-02-08T00:42:02.933Z,100.00
2019-02-08T00:44:31.653Z,100.00
2019-02-08T00:47:00.357Z,100.00
2019-02-08T00:49:29.043Z,100.00
2019-02-08T00:51:57.679Z,100.00
2019-02-08T00:54:26.368Z,100.00
2019-02-08T00:56:54.954Z,100.00
2019-02-08T00:59:23.593Z,100.00
2019-02-08T01:01:52.328Z,100.00
2019-02-08T01:04:20.991Z,100.00
2019-02-08T01:06:49.621Z,100.00
2019-02-08T01:09:18.321Z,100.00
2019-02-08T01:11:47.233Z,100.00
2019-02-08T01:14:15.941Z,100.00
2019-02-08T01:16:44.681Z,100.00
2019-02-08T01:19:13.313Z,100.00
2019-02-08T01:21:42.056Z,100.00
2019-02-08T01:24:10.784Z,100.00
2019-02-08T01:26:39.397Z,100.00
2019-02-08T01:29:08.106Z,100.00
2019-02-08T01:31:36.797Z,100.00
2019-02-08T01:34:05.705Z,100.00
2019-02-08T01:36:34.341Z,100.00
2019-02-08T01:39:03.056Z,100.00
2019-02-08T01:41:31.670Z,100.00
2019-02-08T01:44:00.303Z,100.00
2019-02-08T01:46:28.938Z,100.00
2019-02-08T01:48:57.647Z,100.00
2019-02-08T01:51:26.332Z,100.00
2019-02-08T01:53:55.041Z,100.00
2019-02-08T01:56:23.657Z,100.00
2019-02-08T01:58:52.305Z,100.00
2019-02-08T02:01:20.947Z,100.00
2019-02-08T02:03:49.594Z,100.00
2019-02-08T02:06:18.202Z,100.00
2019-02-08T02:08:46.849Z,100.00
2019-02-08T02:11:15.481Z,100.00
2019-02-08T02:13:44.197Z,100.00
2019-02-08T02:16:12.882Z,100.00
2019-02-08T02:18:41.519Z,100.00
2019-02-08T02:21:10.129Z,100.00
2019-02-08T02:23:38.756Z,100.00
2019-02-08T02:26:07.449Z,100.00
2019-02-08T02:28:36.154Z,100.00
2019-02-08T02:34:18.871Z,100.00
2019-02-08T02:36:47.483Z,100.00
2019-02-08T02:39:16.182Z,100.00
2019-02-08T02:41:44.799Z,100.00
2019-02-08T02:44:13.511Z,100.00
2019-02-08T02:46:42.189Z,100.00
2019-02-08T02:49:10.883Z,100.00
2019-02-08T02:51:39.583Z,100.00
2019-02-08T02:54:08.295Z,100.00
2019-02-08T02:56:37.016Z,100.00
2019-02-08T03:02:20.138Z,100.00
2019-02-08T03:04:48.755Z,100.00
2019-02-08T03:07:17.543Z,100.00
2019-02-08T03:09:46.285Z,100.00
2019-02-08T03:12:14.922Z,100.00
2019-02-08T03:14:43.562Z,100.00
2019-02-08T03:17:12.265Z,100.00
2019-02-08T03:19:40.986Z,100.00
2019-02-08T03:22:09.671Z,100.00
2019-02-08T03:24:38.285Z,100.00
2019-02-08T03:27:06.913Z,100.00
2019-02-08T03:29:35.525Z,100.00
2019-02-08T03:32:04.305Z,100.00
2019-02-08T03:34:32.998Z,100.00
2019-02-08T03:37:01.718Z,100.00
2019-02-08T03:39:30.356Z,100.00
2019-02-08T03:41:58.979Z,100.00
2019-02-08T03:44:27.585Z,100.00
2019-02-08T03:46:56.218Z,100.00
2019-02-08T03:49:24.909Z,100.00
2019-02-08T03:51:53.541Z,100.00
2019-02-08T03:54:22.178Z,100.00
2019-02-08T03:56:50.813Z,100.00
2019-02-08T03:59:19.524Z,100.00
2019-02-08T04:01:48.233Z,100.00
2019-02-08T04:04:17.542Z,100.00
2019-02-08T04:06:46.250Z,100.00
2019-02-08T04:09:14.947Z,100.00
2019-02-08T04:11:43.652Z,100.00
2019-02-08T04:14:12.361Z,100.00
2019-02-08T04:16:41.053Z,100.00
2019-02-08T04:19:09.760Z,100.00
2019-02-08T04:21:38.386Z,100.00
2019-02-08T04:24:07.164Z,100.00
2019-02-08T04:26:35.773Z,100.00
2019-02-08T04:29:04.493Z,100.00
2019-02-08T04:31:33.110Z,100.00
2019-02-08T04:34:01.724Z,100.00
2019-02-08T04:36:30.332Z,100.00
2019-02-08T04:38:59.032Z,100.00
2019-02-08T04:41:27.718Z,100.00
2019-02-08T04:43:56.422Z,100.00
2019-02-08T04:46:25.037Z,100.00
2019-02-08T04:48:53.690Z,100.00
2019-02-08T04:51:22.386Z,100.00
2019-02-08T04:53:51.196Z,100.00
2019-02-08T04:56:19.822Z,100.00
2019-02-08T04:58:48.467Z,100.00
2019-02-08T05:01:17.085Z,100.00
2019-02-08T05:03:45.711Z,100.00
2019-02-08T05:06:14.406Z,100.00
2019-02-08T05:08:43.109Z,100.00
2019-02-08T05:11:11.805Z,100.00
2019-02-08T05:13:40.441Z,100.00
2019-02-08T05:16:09.057Z,100.00
2019-02-08T05:18:37.754Z,100.00
2019-02-08T05:21:06.374Z,100.00
2019-02-08T05:23:35.047Z,100.00
2019-02-08T05:26:03.842Z,100.00
2019-02-08T05:28:32.459Z,100.00
2019-02-08T05:31:01.102Z,100.00
2019-02-08T05:33:29.955Z,100.00
2019-02-08T05:35:58.529Z,100.00
2019-02-08T05:38:27.152Z,100.00
2019-02-08T05:40:55.791Z,100.00
2019-02-08T05:43:24.466Z,100.00
2019-02-08T05:45:53.099Z,99.77
2019-02-08T05:48:21.749Z,99.66
2019-02-08T05:50:50.454Z,99.86
2019-02-08T05:53:19.123Z,99.62
2019-02-08T05:55:47.843Z,99.31
2019-02-08T05:58:16.463Z,99.14
2019-02-08T06:00:52.088Z,99.20
2019-02-08T06:03:20.779Z,99.18
2019-02-08T06:05:49.493Z,99.15
2019-02-08T06:08:18.248Z,99.01
2019-02-08T06:10:46.978Z,99.27
2019-02-08T06:13:15.665Z,99.09
2019-02-08T06:15:44.314Z,99.02
2019-02-08T06:18:13.164Z,99.18
2019-02-08T06:20:42.426Z,99.03
2019-02-08T06:23:11.182Z,99.10
2019-02-08T06:25:39.981Z,98.92
2019-02-08T06:28:08.832Z,99.30
2019-02-08T06:30:37.785Z,99.43
2019-02-08T06:33:07.127Z,99.11
2019-02-08T06:35:35.995Z,99.08
2019-02-08T06:38:05.229Z,99.22
2019-02-08T06:43:28.664Z,99.86
2019-02-08T06:45:57.287Z,99.58
2019-02-08T06:48:25.889Z,99.54
2019-02-08T06:50:54.597Z,99.58
2019-02-08T06:53:23.283Z,99.80
2019-02-08T06:55:53.883Z,100.00
2019-02-08T06:58:41.410Z,99.77
2019-02-08T07:01:29.105Z,99.45
2019-02-08T07:04:16.745Z,99.92
2019-02-08T07:07:04.346Z,99.64
2019-02-08T07:09:52.073Z,99.58
2019-02-08T07:12:39.760Z,99.65
2019-02-08T07:15:27.993Z,99.49
2019-02-08T07:18:03.034Z,99.17
2019-02-08T07:20:50.710Z,99.04
2019-02-08T07:23:28.056Z,98.81
2019-02-08T07:26:15.706Z,98.95
2019-02-08T07:29:03.312Z,99.00
2019-02-08T07:31:50.939Z,99.12
2019-02-08T07:34:38.621Z,99.62
2019-02-08T07:37:26.251Z,99.19
2019-02-08T07:43:16.063Z,99.43
2019-02-08T07:49:05.451Z,99.30
2019-02-08T07:51:42.875Z,99.46
2019-02-08T07:54:30.566Z,99.53
2019-02-08T07:57:09.543Z,99.01
2019-02-08T07:59:49.375Z,98.90
2019-02-08T08:02:37.095Z,98.74
2019-02-08T08:05:45.663Z,98.46
2019-02-08T08:08:33.367Z,98.40
2019-02-08T08:11:21.150Z,97.96
2019-02-08T08:14:00.291Z,97.73
2019-02-08T08:16:47.969Z,97.88
2019-02-08T08:19:56.766Z,97.65
2019-02-08T08:22:32.784Z,97.83
2019-02-08T08:25:41.231Z,97.50
2019-02-08T08:28:29.066Z,97.36
2019-02-08T08:41:08.873Z,96.92
2019-02-08T08:44:15.990Z,96.57
2019-02-08T08:47:23.108Z,96.41
2019-02-08T08:50:17.134Z,96.37
2019-02-08T08:53:24.239Z,96.52
2019-02-08T08:56:31.517Z,96.83
2019-02-08T08:59:38.657Z,96.28
2019-02-08T09:05:54.335Z,96.27
2019-02-08T09:09:01.477Z,96.04
2019-02-08T09:12:08.583Z,95.49
2019-02-08T09:15:03.021Z,95.78
2019-02-08T09:18:10.184Z,95.40
2019-02-08T09:21:17.319Z,94.90
2019-02-08T09:24:24.444Z,94.92
2019-02-08T09:27:16.232Z,95.05
2019-02-08T09:30:23.349Z,95.36
2019-02-08T09:33:30.480Z,95.05
2019-02-08T09:36:37.610Z,94.61
2019-02-08T09:39:44.718Z,94.90
2019-02-08T09:42:51.831Z,94.68
2019-02-08T09:45:58.937Z,94.91
2019-02-08T09:49:06.055Z,94.46
2019-02-08T09:52:13.220Z,94.55
2019-02-08T09:55:20.302Z,94.58
2019-02-08T09:58:27.451Z,94.68
2019-02-08T10:01:34.562Z,94.23
2019-02-08T10:04:41.806Z,94.00
2019-02-08T10:07:48.926Z,93.98
2019-02-08T10:10:56.028Z,93.55
2019-02-08T10:14:03.127Z,93.37
2019-02-08T10:16:58.079Z,93.53
2019-02-08T10:19:57.906Z,92.96
2019-02-08T10:23:05.038Z,92.81
2019-02-08T10:26:05.477Z,92.23
2019-02-08T10:29:17.207Z,91.31
2019-02-08T10:32:24.730Z,91.34
2019-02-08T10:35:31.843Z,91.29
2019-02-08T10:38:38.948Z,91.09
2019-02-08T10:41:46.142Z,90.93
2019-02-08T10:44:53.448Z,90.77
2019-02-08T10:48:00.688Z,90.20
2019-02-08T10:51:07.907Z,89.99
2019-02-08T10:54:15.014Z,90.32
2019-02-08T10:57:22.172Z,89.29
2019-02-08T11:00:39.426Z,89.56
2019-02-08T11:03:46.548Z,89.61
2019-02-08T11:07:28.031Z,87.78
2019-02-08T11:10:32.283Z,87.13
2019-02-08T11:13:39.397Z,86.72
2019-02-08T11:16:34.742Z,86.45
2019-02-08T11:19:40.978Z,85.71
2019-02-08T11:22:09.698Z,86.24
2019-02-08T11:24:38.441Z,86.22
2019-02-08T11:27:07.163Z,86.00
2019-02-08T11:29:35.792Z,86.27
2019-02-08T11:32:44.199Z,85.37
2019-02-08T11:35:52.616Z,85.34
2019-02-08T11:38:21.213Z,85.56
2019-02-08T11:41:29.677Z,86.13
2019-02-08T11:43:58.323Z,85.62
2019-02-08T11:46:27.019Z,85.41
2019-02-08T11:48:55.635Z,84.22
2019-02-08T11:51:24.291Z,84.80
2019-02-08T11:53:52.984Z,84.14
2019-02-08T11:56:21.701Z,84.53
2019-02-08T11:58:50.327Z,83.55
2019-02-08T12:01:19.028Z,83.99
2019-02-08T12:03:47.644Z,83.21
2019-02-08T12:06:16.360Z,82.63
2019-02-08T12:08:44.995Z,82.72
2019-02-08T12:11:13.653Z,82.99
2019-02-08T12:13:42.348Z,83.24
2019-02-08T12:16:11.054Z,82.80
2019-02-08T12:18:39.740Z,82.75
2019-02-08T12:21:08.440Z,81.97
2019-02-08T12:23:37.052Z,83.03
2019-02-08T12:26:05.701Z,82.78
2019-02-08T12:28:34.324Z,82.48
2019-02-08T12:31:02.957Z,82.74
2019-02-08T12:33:31.559Z,82.22
2019-02-08T12:36:00.246Z,82.76
2019-02-08T12:38:28.889Z,82.23
2019-02-08T12:40:57.508Z,83.03
2019-02-08T12:43:26.291Z,82.97
2019-02-08T12:45:55.002Z,83.12
2019-02-08T12:48:23.624Z,83.37
2019-02-08T12:50:52.273Z,82.74
2019-02-08T12:53:20.892Z,83.01
2019-02-08T12:55:49.509Z,83.23
2019-02-08T12:58:18.161Z,84.10
2019-02-08T13:00:46.872Z,83.54
2019-02-08T13:03:15.514Z,83.28
2019-02-08T13:05:44.292Z,81.94
2019-02-08T13:08:12.935Z,82.87
2019-02-08T13:10:41.552Z,83.12
2019-02-08T13:13:10.214Z,83.37
2019-02-08T13:15:38.849Z,83.07
2019-02-08T13:18:07.497Z,82.53
2019-02-08T13:20:36.182Z,81.95
2019-02-08T13:23:04.981Z,81.56
2019-02-08T13:25:33.626Z,80.72
2019-02-08T13:28:02.313Z,81.33
2019-02-08T13:33:44.836Z,80.74
2019-02-08T13:36:15.095Z,81.52
2019-02-08T13:38:43.837Z,80.24
2019-02-08T13:41:12.534Z,79.95
2019-02-08T13:43:41.218Z,79.73
2019-02-08T13:46:09.912Z,80.60
2019-02-08T13:48:38.551Z,79.80
2019-02-08T13:51:07.178Z,79.36
2019-02-08T13:53:35.875Z,80.62
2019-02-08T13:56:04.602Z,80.95
2019-02-08T13:58:33.422Z,80.98
2019-02-08T14:01:02.087Z,80.81
2019-02-08T14:03:30.800Z,81.31
2019-02-08T14:05:59.493Z,82.13
2019-02-08T14:08:28.244Z,82.20
2019-02-08T14:10:56.959Z,81.64
2019-02-08T14:13:25.579Z,82.12
2019-02-08T14:15:54.407Z,81.05
2019-02-08T14:18:23.050Z,81.07
2019-02-08T14:20:51.777Z,81.27
2019-02-08T14:23:20.476Z,81.01
2019-02-08T14:25:49.196Z,81.37
2019-02-08T14:28:17.796Z,81.15
2019-02-08T14:30:46.503Z,81.20
2019-02-08T14:33:15.132Z,81.55
2019-02-08T14:35:43.950Z,81.28
2019-02-08T14:41:28.325Z,81.12
2019-02-08T14:43:57.012Z,81.54
2019-02-08T14:46:25.635Z,81.93
2019-02-08T14:48:56.293Z,82.04
2019-02-08T14:51:24.868Z,82.91
2019-02-08T14:53:53.484Z,82.44
2019-02-08T14:56:22.180Z,82.26
2019-02-08T14:58:50.921Z,82.52
2019-02-08T15:01:19.548Z,82.51
2019-02-08T15:03:48.158Z,82.83
2019-02-08T15:06:16.812Z,82.55
2019-02-08T15:08:45.496Z,82.66
2019-02-08T15:11:14.277Z,82.01
2019-02-08T15:13:42.954Z,82.16
2019-02-08T15:16:11.651Z,82.50
2019-02-08T15:18:40.258Z,82.30
2019-02-08T15:21:08.895Z,82.04
2019-02-08T15:23:37.517Z,82.48
2019-02-08T15:26:06.165Z,82.95
2019-02-08T15:28:34.836Z,82.81
2019-02-08T15:31:03.594Z,82.27
2019-02-08T15:33:32.206Z,81.25
2019-02-08T15:36:01.164Z,81.74
2019-02-08T15:38:29.880Z,81.88
2019-02-08T15:40:58.659Z,81.93
2019-02-08T15:43:28.039Z,81.94
2019-02-08T15:45:59.349Z,81.77
2019-02-08T15:48:28.088Z,81.74
2019-02-08T15:50:56.783Z,81.65
2019-02-08T15:53:25.420Z,81.33
2019-02-08T15:56:15.233Z,81.51
2019-02-08T15:58:44.024Z,81.30
2019-02-08T16:01:13.148Z,81.63
2019-02-08T16:03:42.025Z,81.90
2019-02-08T16:06:10.743Z,81.31
2019-02-08T16:08:39.477Z,81.60
2019-02-08T16:11:08.280Z,81.44
2019-02-08T16:13:37.013Z,81.73
2019-02-08T16:19:20.292Z,81.36
2019-02-08T16:21:48.990Z,81.44
2019-02-08T16:24:17.741Z,81.04
2019-02-08T16:26:46.350Z,81.07
2019-02-08T16:29:15.024Z,81.54
2019-02-08T16:31:43.782Z,81.55
2019-02-08T16:34:12.484Z,81.29
2019-02-08T16:36:41.140Z,81.25
2019-02-08T16:39:29.723Z,81.16
2019-02-08T16:41:58.341Z,81.21
2019-02-08T16:44:27.049Z,81.38
2019-02-08T16:46:55.734Z,81.73
2019-02-08T16:49:43.673Z,81.53
2019-02-08T16:52:12.741Z,81.83
2019-02-08T16:55:00.576Z,81.67
2019-02-08T16:57:29.391Z,81.51
2019-02-08T16:59:58.274Z,82.18
2019-02-08T17:02:27.090Z,82.29
2019-02-08T17:04:55.833Z,82.12
2019-02-08T17:07:24.575Z,81.93
2019-02-08T17:09:53.449Z,81.76
2019-02-08T17:12:22.312Z,81.73
2019-02-08T17:14:51.136Z,81.72
2019-02-08T17:17:20.119Z,82.17
2019-02-08T17:19:48.937Z,82.25
2019-02-08T17:22:17.739Z,82.17
2019-02-08T17:24:46.743Z,82.46
2019-02-08T17:27:15.628Z,82.53
2019-02-08T17:29:44.405Z,82.93
2019-02-08T17:32:15.926Z,82.68
2019-02-08T17:37:19.429Z,82.51
2019-02-08T17:39:48.251Z,82.72
2019-02-08T17:42:17.272Z,83.03
2019-02-08T17:44:45.966Z,83.04
2019-02-08T17:47:14.931Z,83.05
2019-02-08T17:49:44.117Z,83.56
2019-02-08T17:52:13.158Z,83.39
2019-02-08T17:54:42.111Z,83.38
2019-02-08T17:57:10.815Z,83.46
2019-02-08T17:59:39.617Z,83.99
2019-02-08T18:02:08.289Z,84.87
2019-02-08T18:04:37.003Z,84.70
2019-02-08T18:07:05.694Z,84.67
2019-02-08T18:09:34.437Z,84.16
2019-02-08T18:12:03.177Z,84.27
2019-02-08T18:14:31.789Z,84.07
2019-02-08T18:17:00.476Z,84.43
2019-02-08T18:19:29.123Z,84.61
2019-02-08T18:21:58.524Z,84.42
2019-02-08T18:24:27.163Z,84.21
2019-02-08T18:26:55.786Z,84.30
2019-02-08T18:29:24.619Z,84.11
2019-02-08T18:31:53.423Z,84.11
2019-02-08T18:34:22.244Z,83.97
2019-02-08T18:36:51.112Z,83.93
2019-02-08T18:39:20.289Z,84.17
2019-02-08T18:41:49.015Z,84.40
2019-02-08T18:44:17.781Z,84.53
2019-02-08T18:46:46.564Z,84.51
2019-02-08T18:49:15.340Z,84.47
2019-02-08T18:51:44.178Z,84.22
2019-02-08T18:54:13.057Z,83.70
2019-02-08T18:56:41.779Z,83.83
2019-02-08T18:59:10.604Z,83.21
2019-02-08T19:01:39.458Z,83.28
2019-02-08T19:04:08.412Z,83.44
2019-02-08T19:06:37.150Z,83.33
2019-02-08T19:09:08.479Z,83.30
2019-02-08T19:11:37.255Z,82.88
2019-02-08T19:14:06.386Z,82.81
2019-02-08T19:16:35.139Z,83.61
2019-02-08T19:19:03.959Z,83.35
2019-02-08T19:21:32.667Z,83.17
2019-02-08T19:24:01.368Z,83.06
2019-02-08T19:26:30.209Z,82.90
2019-02-08T19:29:01.166Z,82.90
2019-02-08T19:31:30.061Z,82.84
2019-02-08T19:33:58.931Z,82.65
2019-02-08T19:36:27.707Z,82.67
2019-02-08T19:38:56.657Z,83.28
2019-02-08T19:41:25.341Z,83.13
2019-02-08T19:43:54.177Z,82.94
2019-02-08T19:46:22.999Z,82.78
2019-02-08T19:48:51.712Z,82.99
2019-02-08T19:51:20.399Z,82.65
2019-02-08T19:53:49.198Z,82.71
2019-02-08T19:56:18.044Z,83.26
2019-02-08T19:58:47.347Z,82.86
2019-02-08T20:01:16.415Z,82.64
2019-02-08T20:03:45.310Z,82.68
2019-02-08T20:06:14.204Z,83.48
2019-02-08T20:11:31.315Z,83.41
2019-02-08T20:14:00.110Z,83.35
2019-02-08T20:16:29.017Z,82.50
2019-02-08T20:18:57.817Z,82.55
2019-02-08T20:21:27.454Z,82.65
2019-02-08T20:23:56.336Z,82.51
2019-02-08T20:26:25.276Z,82.77
2019-02-08T20:28:54.807Z,82.58
2019-02-08T20:31:23.643Z,82.66
2019-02-08T20:33:52.378Z,82.47
2019-02-08T20:36:21.903Z,82.74
2019-02-08T20:38:50.632Z,82.68
2019-02-08T20:41:19.546Z,82.61
2019-02-08T20:43:48.878Z,82.67
2019-02-08T20:46:17.736Z,82.64
2019-02-08T20:48:46.435Z,82.30
2019-02-08T20:51:15.096Z,82.16
2019-02-08T20:53:43.777Z,81.73
2019-02-08T20:56:12.593Z,82.25
2019-02-08T20:58:41.671Z,81.93
2019-02-08T21:03:59.937Z,81.16
2019-02-08T21:06:28.736Z,81.35
2019-02-08T21:08:57.620Z,81.14
2019-02-08T21:11:26.381Z,81.29
2019-02-08T21:13:55.089Z,81.31
2019-02-08T21:16:24.067Z,80.99
2019-02-08T21:18:52.820Z,80.96
2019-02-08T21:21:21.691Z,81.16
2019-02-08T21:23:50.312Z,81.10
2019-02-08T21:26:19.140Z,81.29
2019-02-08T21:28:47.820Z,80.91
2019-02-08T21:31:35.719Z,81.00
2019-02-08T21:34:04.490Z,81.35
2019-02-08T21:36:38.780Z,80.97
2019-02-08T21:47:34.407Z,81.44
2019-02-08T21:50:24.682Z,81.56
2019-02-08T21:55:45.754Z,82.03
2019-02-08T21:58:14.593Z,81.90
2019-02-08T22:00:43.742Z,82.30
2019-02-08T22:03:12.915Z,82.23
2019-02-08T22:05:44.583Z,82.45
2019-02-08T22:08:13.747Z,82.29
2019-02-08T22:10:42.605Z,82.00
2019-02-08T22:13:11.308Z,81.70
2019-02-08T22:15:40.300Z,81.92
2019-02-08T22:18:48.787Z,81.80
2019-02-08T22:21:17.528Z,81.41
2019-02-08T22:23:46.310Z,80.71
2019-02-08T22:26:15.135Z,80.81
2019-02-08T22:28:43.825Z,80.80
2019-02-08T22:31:12.839Z,80.42
2019-02-08T22:33:41.550Z,81.05
2019-02-08T22:36:10.253Z,80.48
2019-02-08T22:38:39.020Z,80.21
2019-02-08T22:41:07.730Z,80.23
2019-02-08T22:43:36.554Z,80.58
2019-02-08T22:46:05.373Z,80.26
2019-02-08T22:48:34.234Z,79.93
2019-02-08T22:51:02.961Z,79.71
2019-02-08T22:53:31.696Z,79.62
2019-02-08T22:56:00.375Z,79.23
2019-02-08T22:58:29.108Z,79.66
2019-02-08T23:01:36.281Z,79.47
2019-02-08T23:04:06.641Z,78.63
2019-02-08T23:06:35.447Z,78.82
2019-02-08T23:09:43.903Z,78.74
2019-02-08T23:12:31.756Z,78.76
2019-02-08T23:15:00.503Z,78.43
2019-02-08T23:17:29.284Z,78.29
2019-02-08T23:20:17.271Z,78.42
2019-02-08T23:22:45.946Z,77.99
2019-02-08T23:25:14.713Z,77.88
2019-02-08T23:27:43.375Z,77.80
2019-02-08T23:30:12.233Z,77.93
2019-02-08T23:32:41.000Z,77.36
2019-02-08T23:35:11.086Z,77.84
2019-02-08T23:37:40.431Z,77.74
2019-02-08T23:40:09.256Z,78.20
2019-02-08T23:42:37.977Z,77.43
2019-02-08T23:45:46.938Z,77.63
2019-02-08T23:48:15.605Z,77.36
2019-02-08T23:50:44.287Z,76.86
2019-02-08T23:53:13.194Z,77.23
2019-02-08T23:55:41.878Z,76.38
2019-02-08T23:58:10.641Z,76.70
